SDM125 UWGG-UUEE
Flight info
| Callsign | SDM125 |
|---|---|
| Flight time | 0h 47m |
| Altitude | 36000 |
| Route | K0848F360 LARNO2U LARNO T291 URIDU L158 DIMGI DIMGI3F |
| Aircraft | A320/M-SDE3FGHIRWY/LB1 |
Departure
| Time | 2026-04-26 00:51 |
|---|---|
| Airport | Nizhny Novgorod / Strigino International Airport (UWGG) |
Arrival
| Time | 2026-04-26 01:39 |
|---|---|
| Airport | Sheremetyevo International Airport (UUEE) |
| Time | Latitude | Longitude | Altitude | Speed | Heading |
|---|---|---|---|---|---|
| 2026-04-26 00:44 | 56.22450 | 43.78957 | 266 ft | 0 kts | 101° |
| 2026-04-26 00:47 | 56.22396 | 43.79007 | 266 ft | 22 kts | 185° |
| 2026-04-26 00:47 | 56.22190 | 43.78930 | 266 ft | 34 kts | 192° |
| 2026-04-26 00:48 | 56.21962 | 43.78848 | 266 ft | 32 kts | 191° |
| 2026-04-26 00:48 | 56.21893 | 43.78721 | 266 ft | 14 kts | 289° |
| 2026-04-26 00:48 | 56.21919 | 43.78515 | 266 ft | 23 kts | 281° |
| 2026-04-26 00:48 | 56.21927 | 43.78447 | 266 ft | 0 kts | 281° |
| 2026-04-26 00:49 | 56.21938 | 43.78345 | 267 ft | 15 kts | 282° |
| 2026-04-26 00:49 | 56.21997 | 43.78223 | 267 ft | 14 kts | 352° |
| 2026-04-26 00:49 | 56.22026 | 43.78229 | 267 ft | 0 kts | 10° |
| 2026-04-26 00:50 | 56.22054 | 43.78239 | 268 ft | 23 kts | 12° |
| 2026-04-26 00:50 | 56.22470 | 43.78392 | 266 ft | 96 kts | 11° |
| 2026-04-26 00:51 | 56.23349 | 43.78715 | 266 ft | 161 kts | 12° |
| 2026-04-26 00:51 | 56.24533 | 43.79514 | 374 ft | 201 kts | 37° |
| 2026-04-26 00:51 | 56.25607 | 43.81355 | 762 ft | 228 kts | 42° |
| 2026-04-26 00:51 | 56.26977 | 43.83040 | 1197 ft | 246 kts | 15° |
| 2026-04-26 00:52 | 56.28642 | 43.82663 | 1230 ft | 251 kts | 323° |
| 2026-04-26 00:52 | 56.29453 | 43.80141 | 1192 ft | 236 kts | 266° |
| 2026-04-26 00:52 | 56.28663 | 43.77499 | 1519 ft | 263 kts | 216° |
| 2026-04-26 00:52 | 56.26830 | 43.76589 | 1747 ft | 291 kts | 175° |
| 2026-04-26 00:53 | 56.24922 | 43.77087 | 1950 ft | 260 kts | 172° |
| 2026-04-26 00:53 | 56.23208 | 43.77559 | 2167 ft | 248 kts | 172° |
| 2026-04-26 00:53 | 56.21426 | 43.78046 | 2408 ft | 266 kts | 172° |
| 2026-04-26 00:53 | 56.19580 | 43.78548 | 2629 ft | 270 kts | 172° |
| 2026-04-26 00:54 | 56.17708 | 43.78861 | 2850 ft | 269 kts | 185° |
| 2026-04-26 00:54 | 56.15935 | 43.77938 | 3507 ft | 265 kts | 209° |
| 2026-04-26 00:54 | 56.14365 | 43.76200 | 4319 ft | 265 kts | 213° |
| 2026-04-26 00:54 | 56.12806 | 43.74406 | 5074 ft | 268 kts | 213° |
| 2026-04-26 00:55 | 56.11235 | 43.72588 | 5782 ft | 270 kts | 213° |
| 2026-04-26 00:55 | 56.09649 | 43.70748 | 6482 ft | 273 kts | 213° |
| 2026-04-26 00:55 | 56.08065 | 43.68912 | 7168 ft | 276 kts | 213° |
| 2026-04-26 00:55 | 56.06445 | 43.67038 | 7840 ft | 279 kts | 213° |
| 2026-04-26 00:56 | 56.04808 | 43.65147 | 8510 ft | 281 kts | 213° |
| 2026-04-26 00:56 | 56.03153 | 43.63239 | 9159 ft | 284 kts | 213° |
| 2026-04-26 00:56 | 56.01597 | 43.61028 | 9777 ft | 287 kts | 226° |
| 2026-04-26 00:56 | 56.00265 | 43.58333 | 10282 ft | 294 kts | 229° |
| 2026-04-26 00:57 | 55.98881 | 43.55475 | 10413 ft | 314 kts | 229° |
| 2026-04-26 00:57 | 55.97408 | 43.52436 | 10545 ft | 332 kts | 229° |
| 2026-04-26 00:57 | 55.95862 | 43.49259 | 10669 ft | 347 kts | 229° |
| 2026-04-26 00:57 | 55.94271 | 43.45998 | 10862 ft | 357 kts | 229° |
| 2026-04-26 00:58 | 55.92626 | 43.42641 | 11225 ft | 362 kts | 229° |
| 2026-04-26 00:58 | 55.90963 | 43.39258 | 11639 ft | 364 kts | 229° |
| 2026-04-26 00:58 | 55.89288 | 43.35852 | 12034 ft | 366 kts | 229° |
| 2026-04-26 00:58 | 55.87603 | 43.32420 | 12443 ft | 368 kts | 229° |
| 2026-04-26 00:59 | 55.85911 | 43.28976 | 12839 ft | 371 kts | 229° |
| 2026-04-26 00:59 | 55.84206 | 43.25515 | 13219 ft | 373 kts | 229° |
| 2026-04-26 00:59 | 55.82523 | 43.21993 | 13584 ft | 374 kts | 234° |
| 2026-04-26 00:59 | 55.81188 | 43.18008 | 13926 ft | 376 kts | 246° |
| 2026-04-26 01:00 | 55.80344 | 43.13601 | 14273 ft | 378 kts | 258° |
| 2026-04-26 01:00 | 55.80029 | 43.08971 | 14593 ft | 380 kts | 269° |
| 2026-04-26 01:00 | 55.80208 | 43.04280 | 14893 ft | 381 kts | 276° |
| 2026-04-26 01:00 | 55.80483 | 42.99579 | 15208 ft | 383 kts | 276° |
| 2026-04-26 01:01 | 55.80757 | 42.94867 | 15512 ft | 385 kts | 276° |
| 2026-04-26 01:01 | 55.81027 | 42.90123 | 15804 ft | 386 kts | 276° |
| 2026-04-26 01:01 | 55.81294 | 42.85357 | 16087 ft | 388 kts | 276° |
| 2026-04-26 01:01 | 55.81555 | 42.80635 | 16365 ft | 390 kts | 275° |
| 2026-04-26 01:02 | 55.81819 | 42.75827 | 16621 ft | 391 kts | 275° |
| 2026-04-26 01:02 | 55.82084 | 42.71007 | 16883 ft | 393 kts | 275° |
| 2026-04-26 01:02 | 55.82348 | 42.66168 | 17129 ft | 394 kts | 275° |
| 2026-04-26 01:02 | 55.82611 | 42.61303 | 17379 ft | 395 kts | 275° |
| 2026-04-26 01:03 | 55.82873 | 42.56436 | 17618 ft | 396 kts | 275° |
| 2026-04-26 01:03 | 55.83134 | 42.51535 | 17852 ft | 398 kts | 275° |
| 2026-04-26 01:03 | 55.83393 | 42.46622 | 18079 ft | 399 kts | 275° |
| 2026-04-26 01:03 | 55.83650 | 42.41700 | 18309 ft | 400 kts | 275° |
| 2026-04-26 01:04 | 55.83906 | 42.36760 | 18531 ft | 401 kts | 275° |
| 2026-04-26 01:04 | 55.84159 | 42.31797 | 18744 ft | 403 kts | 275° |
| 2026-04-26 01:04 | 55.84410 | 42.26825 | 18945 ft | 404 kts | 275° |
| 2026-04-26 01:04 | 55.84662 | 42.21840 | 19145 ft | 405 kts | 275° |
| 2026-04-26 01:05 | 55.84915 | 42.16838 | 19336 ft | 406 kts | 275° |
| 2026-04-26 01:05 | 55.85164 | 42.11886 | 19527 ft | 407 kts | 275° |
| 2026-04-26 01:05 | 55.85413 | 42.06857 | 19704 ft | 408 kts | 275° |
| 2026-04-26 01:05 | 55.85661 | 42.01818 | 19876 ft | 410 kts | 275° |
| 2026-04-26 01:06 | 55.85908 | 41.96761 | 20047 ft | 411 kts | 275° |
| 2026-04-26 01:06 | 55.86153 | 41.91683 | 20215 ft | 412 kts | 275° |
| 2026-04-26 01:06 | 55.86392 | 41.86595 | 20374 ft | 413 kts | 275° |
| 2026-04-26 01:06 | 55.86629 | 41.81504 | 20545 ft | 414 kts | 275° |
| 2026-04-26 01:07 | 55.86718 | 41.76386 | 20691 ft | 414 kts | 267° |
| 2026-04-26 01:07 | 55.86565 | 41.71254 | 20846 ft | 415 kts | 267° |
| 2026-04-26 01:07 | 55.86412 | 41.66104 | 20995 ft | 416 kts | 267° |
| 2026-04-26 01:07 | 55.86260 | 41.60947 | 21139 ft | 417 kts | 267° |
| 2026-04-26 01:08 | 55.86107 | 41.55780 | 21280 ft | 418 kts | 267° |
| 2026-04-26 01:08 | 55.85953 | 41.50607 | 21413 ft | 419 kts | 267° |
| 2026-04-26 01:08 | 55.85796 | 41.45418 | 21550 ft | 420 kts | 266° |
| 2026-04-26 01:08 | 55.85632 | 41.40226 | 21685 ft | 421 kts | 266° |
| 2026-04-26 01:09 | 55.85464 | 41.35016 | 21811 ft | 422 kts | 266° |
| 2026-04-26 01:09 | 55.85296 | 41.29863 | 21938 ft | 422 kts | 266° |
| 2026-04-26 01:09 | 55.85129 | 41.24642 | 22063 ft | 423 kts | 266° |
| 2026-04-26 01:09 | 55.84961 | 41.19412 | 22188 ft | 424 kts | 266° |
| 2026-04-26 01:10 | 55.84786 | 41.14173 | 22313 ft | 424 kts | 266° |
| 2026-04-26 01:10 | 55.84606 | 41.08901 | 21919 ft | 427 kts | 266° |
| 2026-04-26 01:10 | 55.84423 | 41.03606 | 20823 ft | 430 kts | 266° |
| 2026-04-26 01:10 | 55.84234 | 40.98291 | 20315 ft | 430 kts | 266° |
| 2026-04-26 01:11 | 55.84046 | 40.92974 | 20102 ft | 430 kts | 266° |
| 2026-04-26 01:11 | 55.83856 | 40.87667 | 19976 ft | 429 kts | 266° |
| 2026-04-26 01:11 | 55.83666 | 40.82372 | 20007 ft | 430 kts | 266° |
| 2026-04-26 01:11 | 55.83471 | 40.77058 | 20011 ft | 430 kts | 266° |
| 2026-04-26 01:12 | 55.83273 | 40.71752 | 20010 ft | 430 kts | 266° |
| 2026-04-26 01:12 | 55.83076 | 40.66441 | 20008 ft | 430 kts | 266° |
| 2026-04-26 01:12 | 55.82874 | 40.61138 | 20005 ft | 430 kts | 266° |
| 2026-04-26 01:12 | 55.82669 | 40.55825 | 20009 ft | 430 kts | 266° |
| 2026-04-26 01:13 | 55.82461 | 40.50594 | 20011 ft | 430 kts | 266° |
| 2026-04-26 01:13 | 55.82244 | 40.45282 | 20006 ft | 430 kts | 266° |
| 2026-04-26 01:13 | 55.82022 | 40.39979 | 19972 ft | 429 kts | 265° |
| 2026-04-26 01:13 | 55.81800 | 40.34733 | 19335 ft | 422 kts | 265° |
| 2026-04-26 01:14 | 55.81578 | 40.29528 | 19050 ft | 423 kts | 265° |
| 2026-04-26 01:14 | 55.81357 | 40.24319 | 18992 ft | 423 kts | 265° |
| 2026-04-26 01:14 | 55.81134 | 40.19084 | 19010 ft | 424 kts | 265° |
| 2026-04-26 01:14 | 55.80907 | 40.13861 | 19008 ft | 424 kts | 265° |
| 2026-04-26 01:15 | 55.80680 | 40.08680 | 18516 ft | 417 kts | 265° |
| 2026-04-26 01:15 | 55.80456 | 40.03540 | 18107 ft | 416 kts | 265° |
| 2026-04-26 01:15 | 55.80246 | 39.98757 | 17980 ft | 417 kts | 265° |
| 2026-04-26 01:15 | 55.80017 | 39.93605 | 18012 ft | 418 kts | 265° |
| 2026-04-26 01:16 | 55.79784 | 39.88465 | 18011 ft | 418 kts | 265° |
| 2026-04-26 01:16 | 55.79547 | 39.83316 | 18007 ft | 418 kts | 265° |
| 2026-04-26 01:16 | 55.79315 | 39.78168 | 18012 ft | 418 kts | 265° |
| 2026-04-26 01:16 | 55.79171 | 39.74763 | 18012 ft | 418 kts | 265° |
| 2026-04-26 01:17 | 55.78955 | 39.69610 | 18013 ft | 418 kts | 266° |
| 2026-04-26 01:17 | 55.78739 | 39.64465 | 18012 ft | 418 kts | 265° |
| 2026-04-26 01:17 | 55.78452 | 39.57651 | 18005 ft | 418 kts | 265° |
| 2026-04-26 01:17 | 55.78235 | 39.52507 | 18012 ft | 418 kts | 265° |
| 2026-04-26 01:18 | 55.78017 | 39.47360 | 18012 ft | 418 kts | 265° |
| 2026-04-26 01:18 | 55.77799 | 39.42212 | 18012 ft | 418 kts | 265° |
| 2026-04-26 01:18 | 55.77651 | 39.38738 | 18013 ft | 418 kts | 265° |
| 2026-04-26 01:18 | 55.77432 | 39.33594 | 18008 ft | 418 kts | 265° |
| 2026-04-26 01:19 | 55.77212 | 39.28452 | 18003 ft | 418 kts | 265° |
| 2026-04-26 01:19 | 55.76991 | 39.23310 | 18012 ft | 418 kts | 265° |
| 2026-04-26 01:19 | 55.76770 | 39.18165 | 17999 ft | 418 kts | 265° |
| 2026-04-26 01:19 | 55.76549 | 39.13030 | 18012 ft | 418 kts | 265° |
| 2026-04-26 01:20 | 55.76327 | 39.07894 | 18012 ft | 418 kts | 265° |
| 2026-04-26 01:20 | 55.76104 | 39.02749 | 18011 ft | 417 kts | 265° |
| 2026-04-26 01:20 | 55.75885 | 38.97682 | 18003 ft | 415 kts | 266° |
| 2026-04-26 01:20 | 55.75722 | 38.92730 | 18006 ft | 387 kts | 267° |
| 2026-04-26 01:21 | 55.75630 | 38.88113 | 18009 ft | 362 kts | 268° |
| 2026-04-26 01:21 | 55.75571 | 38.83713 | 18011 ft | 353 kts | 269° |
| 2026-04-26 01:21 | 55.75520 | 38.79376 | 18001 ft | 351 kts | 269° |
| 2026-04-26 01:21 | 55.75462 | 38.75046 | 18011 ft | 350 kts | 268° |
| 2026-04-26 01:22 | 55.75395 | 38.70721 | 18012 ft | 350 kts | 268° |
| 2026-04-26 01:22 | 55.75322 | 38.66407 | 18011 ft | 350 kts | 268° |
| 2026-04-26 01:22 | 55.75304 | 38.62085 | 18000 ft | 350 kts | 274° |
| 2026-04-26 01:22 | 55.75701 | 38.57822 | 18012 ft | 350 kts | 285° |
| 2026-04-26 01:23 | 55.76568 | 38.53796 | 18006 ft | 350 kts | 297° |
| 2026-04-26 01:23 | 55.77864 | 38.50141 | 18016 ft | 350 kts | 305° |
| 2026-04-26 01:23 | 55.79278 | 38.46614 | 18005 ft | 350 kts | 305° |
| 2026-04-26 01:23 | 55.80683 | 38.43078 | 18010 ft | 350 kts | 305° |
| 2026-04-26 01:24 | 55.82049 | 38.39630 | 18003 ft | 332 kts | 305° |
| 2026-04-26 01:24 | 55.83376 | 38.36315 | 18011 ft | 327 kts | 306° |
| 2026-04-26 01:24 | 55.84740 | 38.33093 | 17888 ft | 323 kts | 307° |
| 2026-04-26 01:24 | 55.86116 | 38.29940 | 17373 ft | 321 kts | 308° |
| 2026-04-26 01:25 | 55.87489 | 38.26835 | 17051 ft | 319 kts | 308° |
| 2026-04-26 01:25 | 55.88865 | 38.23717 | 16999 ft | 319 kts | 308° |
| 2026-04-26 01:25 | 55.90235 | 38.20593 | 17008 ft | 320 kts | 308° |
| 2026-04-26 01:25 | 55.91491 | 38.17315 | 17010 ft | 320 kts | 296° |
| 2026-04-26 01:26 | 55.92480 | 38.13757 | 17009 ft | 320 kts | 296° |
| 2026-04-26 01:26 | 55.93469 | 38.10200 | 17009 ft | 320 kts | 296° |
| 2026-04-26 01:26 | 55.94459 | 38.06636 | 17008 ft | 320 kts | 296° |
| 2026-04-26 01:26 | 55.95444 | 38.03070 | 17009 ft | 320 kts | 296° |
| 2026-04-26 01:27 | 55.96413 | 37.99546 | 17008 ft | 320 kts | 296° |
| 2026-04-26 01:27 | 55.97388 | 37.95992 | 16745 ft | 317 kts | 296° |
| 2026-04-26 01:27 | 55.98352 | 37.92462 | 16227 ft | 315 kts | 296° |
| 2026-04-26 01:27 | 55.99309 | 37.88951 | 16011 ft | 314 kts | 296° |
| 2026-04-26 01:28 | 56.00265 | 37.85441 | 16004 ft | 315 kts | 296° |
| 2026-04-26 01:28 | 56.01228 | 37.81928 | 16009 ft | 315 kts | 298° |
| 2026-04-26 01:28 | 56.02464 | 37.78697 | 16008 ft | 315 kts | 312° |
| 2026-04-26 01:28 | 56.04094 | 37.76086 | 16009 ft | 316 kts | 325° |
| 2026-04-26 01:29 | 56.06019 | 37.74208 | 16010 ft | 316 kts | 335° |
| 2026-04-26 01:29 | 56.07945 | 37.72625 | 15852 ft | 313 kts | 335° |
| 2026-04-26 01:29 | 56.09900 | 37.71010 | 15339 ft | 312 kts | 335° |
| 2026-04-26 01:29 | 56.11895 | 37.69508 | 14841 ft | 310 kts | 343° |
| 2026-04-26 01:30 | 56.13955 | 37.68458 | 14333 ft | 307 kts | 343° |
| 2026-04-26 01:30 | 56.16001 | 37.67338 | 13844 ft | 305 kts | 342° |
| 2026-04-26 01:30 | 56.17970 | 37.65984 | 13348 ft | 302 kts | 329° |
| 2026-04-26 01:30 | 56.19551 | 37.63654 | 12873 ft | 299 kts | 308° |
| 2026-04-26 01:31 | 56.20560 | 37.60434 | 12393 ft | 296 kts | 287° |
| 2026-04-26 01:31 | 56.20786 | 37.56819 | 12013 ft | 289 kts | 259° |
| 2026-04-26 01:31 | 56.19963 | 37.53695 | 11887 ft | 273 kts | 225° |
| 2026-04-26 01:31 | 56.18390 | 37.52024 | 11645 ft | 263 kts | 191° |
| 2026-04-26 01:32 | 56.16602 | 37.52270 | 11216 ft | 261 kts | 155° |
| 2026-04-26 01:32 | 56.15245 | 37.54350 | 10767 ft | 260 kts | 118° |
| 2026-04-26 01:32 | 56.14537 | 37.57341 | 10278 ft | 262 kts | 110° |
| 2026-04-26 01:32 | 56.13892 | 37.60389 | 9832 ft | 262 kts | 110° |
| 2026-04-26 01:33 | 56.13247 | 37.63431 | 9375 ft | 261 kts | 112° |
| 2026-04-26 01:33 | 56.12491 | 37.66450 | 8659 ft | 269 kts | 115° |
| 2026-04-26 01:33 | 56.11660 | 37.69512 | 7932 ft | 277 kts | 116° |
| 2026-04-26 01:33 | 56.10789 | 37.72646 | 7182 ft | 284 kts | 116° |
| 2026-04-26 01:34 | 56.09743 | 37.75661 | 6418 ft | 288 kts | 136° |
| 2026-04-26 01:34 | 56.08032 | 37.77213 | 6257 ft | 267 kts | 174° |
| 2026-04-26 01:34 | 56.06277 | 37.77002 | 6216 ft | 244 kts | 194° |
| 2026-04-26 01:34 | 56.04695 | 37.76088 | 5918 ft | 236 kts | 204° |
| 2026-04-26 01:35 | 56.03293 | 37.74769 | 5510 ft | 233 kts | 210° |
| 2026-04-26 01:35 | 56.02062 | 37.72941 | 5098 ft | 230 kts | 235° |
| 2026-04-26 01:35 | 56.01447 | 37.70352 | 4684 ft | 227 kts | 259° |
| 2026-04-26 01:35 | 56.01230 | 37.67589 | 4231 ft | 227 kts | 262° |
| 2026-04-26 01:36 | 56.00830 | 37.64894 | 4008 ft | 218 kts | 248° |
| 2026-04-26 01:36 | 56.00316 | 37.62515 | 3875 ft | 192 kts | 252° |
| 2026-04-26 01:36 | 56.00026 | 37.60293 | 3423 ft | 181 kts | 257° |
| 2026-04-26 01:37 | 55.99293 | 37.56079 | 2487 ft | 172 kts | 255° |
| 2026-04-26 01:37 | 55.98994 | 37.54049 | 2129 ft | 166 kts | 255° |
| 2026-04-26 01:37 | 55.98698 | 37.52069 | 1686 ft | 162 kts | 256° |
| 2026-04-26 01:37 | 55.98426 | 37.50170 | 1340 ft | 154 kts | 256° |
| 2026-04-26 01:38 | 55.98166 | 37.48364 | 1068 ft | 148 kts | 255° |
| 2026-04-26 01:38 | 55.97900 | 37.46608 | 899 ft | 143 kts | 255° |
| 2026-04-26 01:38 | 55.97653 | 37.44930 | 725 ft | 136 kts | 255° |
| 2026-04-26 01:38 | 55.97419 | 37.43371 | 640 ft | 128 kts | 256° |
| 2026-04-26 01:39 | 55.97228 | 37.42016 | 643 ft | 96 kts | 253° |
| 2026-04-26 01:39 | 55.97102 | 37.41277 | 641 ft | 32 kts | 242° |
| 2026-04-26 01:39 | 55.96973 | 37.40953 | 638 ft | 32 kts | 225° |
| 2026-04-26 01:39 | 55.96905 | 37.40832 | 642 ft | 0 kts | 225° |
| 2026-04-26 01:41 | 55.96854 | 37.40807 | 642 ft | 11 kts | 176° |
| 2026-04-26 01:41 | 55.96788 | 37.40833 | 639 ft | 9 kts | 172° |
| 2026-04-26 01:41 | 55.96742 | 37.40794 | 639 ft | 8 kts | 236° |
| 2026-04-26 01:41 | 55.96716 | 37.40706 | 642 ft | 11 kts | 221° |
| 2026-04-26 01:42 | 55.96635 | 37.40718 | 639 ft | 12 kts | 165° |
| 2026-04-26 01:42 | 55.96573 | 37.40730 | 643 ft | 5 kts | 202° |
| 2026-04-26 01:42 | 55.96555 | 37.40678 | 645 ft | 6 kts | 250° |
| 2026-04-26 01:42 | 55.96544 | 37.40605 | 639 ft | 5 kts | 255° |
| 2026-04-26 01:43 | 55.96541 | 37.40586 | 639 ft | 1 kts | 255° |
| 2026-04-26 01:43 | 55.96540 | 37.40579 | 639 ft | 0 kts | 255° |